createdAt,value
2023-02-25T00:01:38.726Z,6.25
2023-02-25T00:04:06.090Z,4.80
2023-02-25T00:06:32.833Z,5.40
2023-02-25T00:09:01.305Z,4.57
2023-02-25T00:11:28.207Z,4.82
2023-02-25T00:13:55.676Z,4.72
2023-02-25T00:16:26.250Z,4.88
2023-02-25T00:18:58.086Z,5.05
2023-02-25T00:21:25.846Z,5.60
2023-02-25T00:23:53.894Z,4.65
2023-02-25T00:26:21.868Z,5.35
2023-02-25T00:28:49.747Z,4.25
2023-02-25T00:31:19.295Z,4.80
2023-02-25T00:33:46.787Z,4.45
2023-02-25T00:36:21.200Z,5.30
2023-02-25T00:38:50.262Z,5.53
2023-02-25T00:41:19.917Z,3.90
2023-02-25T00:44:01.310Z,4.30
2023-02-25T00:46:29.846Z,4.03
2023-02-25T00:48:57.802Z,4.82
2023-02-25T00:51:30.462Z,4.50
2023-02-25T00:53:58.396Z,4.82
2023-02-25T00:56:26.166Z,4.82
2023-02-25T00:58:53.793Z,6.07
2023-02-25T01:01:22.150Z,5.15
2023-02-25T01:03:51.350Z,4.72
2023-02-25T01:06:18.390Z,4.60
2023-02-25T01:08:45.999Z,5.40
2023-02-25T01:11:27.428Z,4.80
2023-02-25T01:13:56.129Z,4.43
2023-02-25T01:16:26.187Z,4.85
2023-02-25T01:18:59.350Z,4.28
2023-02-25T01:21:29.680Z,3.83
2023-02-25T01:23:59.477Z,4.07
2023-02-25T01:26:27.990Z,4.30
2023-02-25T01:28:56.131Z,5.05
2023-02-25T01:31:24.917Z,4.95
2023-02-25T01:33:52.390Z,4.07
2023-02-25T01:36:19.745Z,4.13
2023-02-25T01:38:47.076Z,3.63
2023-02-25T01:41:13.718Z,4.05
2023-02-25T01:43:41.937Z,4.28
2023-02-25T01:46:08.845Z,4.53
2023-02-25T01:48:39.772Z,4.05
2023-02-25T01:51:10.033Z,4.00
2023-02-25T01:53:47.561Z,4.35
2023-02-25T01:56:18.190Z,4.20
2023-02-25T01:58:45.529Z,4.10
2023-02-25T02:01:17.800Z,4.75
2023-02-25T02:03:47.375Z,5.18
2023-02-25T02:06:27.971Z,4.90
2023-02-25T02:08:55.550Z,4.80
2023-02-25T02:11:22.420Z,3.65
2023-02-25T02:13:55.421Z,4.38
2023-02-25T02:16:37.966Z,5.22
2023-02-25T02:19:27.964Z,4.93
2023-02-25T02:22:18.349Z,4.43
2023-02-25T02:25:15.369Z,5.25
2023-02-25T02:28:01.422Z,5.88
2023-02-25T02:30:46.670Z,4.85
2023-02-25T02:33:22.419Z,5.13
2023-02-25T02:35:58.854Z,5.00
2023-02-25T02:38:47.171Z,4.18
2023-02-25T02:41:26.408Z,4.03
2023-02-25T02:43:56.408Z,3.95
2023-02-25T02:46:27.328Z,3.75
2023-02-25T02:49:05.899Z,4.93
2023-02-25T02:51:44.619Z,5.30
2023-02-25T02:54:14.066Z,4.13
2023-02-25T02:56:44.959Z,4.93
2023-02-25T02:59:20.661Z,4.93
2023-02-25T03:01:57.712Z,4.50
2023-02-25T03:04:29.698Z,4.22
2023-02-25T03:07:03.191Z,3.83
2023-02-25T03:09:38.137Z,4.90
2023-02-25T03:12:05.805Z,4.93
2023-02-25T03:14:35.644Z,4.80
2023-02-25T03:17:36.568Z,5.05
2023-02-25T03:20:10.614Z,4.72
2023-02-25T03:22:41.997Z,3.83
2023-02-25T03:25:26.606Z,4.55
2023-02-25T03:27:56.986Z,3.88
2023-02-25T03:30:35.439Z,3.53
2023-02-25T03:33:28.114Z,4.55
2023-02-25T03:35:56.778Z,4.95
2023-02-25T03:38:28.066Z,5.03
2023-02-25T03:40:56.833Z,4.45
2023-02-25T03:43:31.392Z,3.65
2023-02-25T03:45:59.082Z,4.93
2023-02-25T03:48:27.861Z,4.38
2023-02-25T03:51:00.665Z,4.70
2023-02-25T03:53:30.101Z,4.65
2023-02-25T03:56:05.298Z,4.30
2023-02-25T03:58:36.665Z,4.00
2023-02-25T04:01:06.733Z,3.83
2023-02-25T04:03:34.811Z,4.03
2023-02-25T04:06:01.818Z,4.78
2023-02-25T04:08:29.238Z,4.88
2023-02-25T04:10:56.011Z,4.18
2023-02-25T04:13:23.437Z,4.18
2023-02-25T04:15:50.760Z,3.80
2023-02-25T04:18:17.867Z,4.30
2023-02-25T04:20:44.865Z,4.45
2023-02-25T04:23:14.498Z,4.03
2023-02-25T04:25:41.750Z,4.18
2023-02-25T04:28:08.675Z,3.97
2023-02-25T04:30:35.789Z,4.00
2023-02-25T04:33:03.470Z,3.88
2023-02-25T04:35:30.185Z,4.55
2023-02-25T04:37:57.539Z,4.18
2023-02-25T04:40:24.868Z,4.32
2023-02-25T04:42:52.204Z,4.28
2023-02-25T04:45:20.285Z,4.13
2023-02-25T04:47:47.626Z,3.95
2023-02-25T04:50:14.265Z,4.30
2023-02-25T04:52:41.578Z,5.05
2023-02-25T04:55:09.722Z,4.40
2023-02-25T04:57:43.130Z,4.75
2023-02-25T05:00:19.086Z,4.03
2023-02-25T05:02:48.198Z,3.88
2023-02-25T05:05:14.980Z,3.33
2023-02-25T05:07:42.603Z,4.47
2023-02-25T05:10:11.864Z,3.90
2023-02-25T05:12:39.257Z,4.32
2023-02-25T05:15:08.216Z,4.63
2023-02-25T05:17:36.268Z,4.85
2023-02-25T05:20:07.982Z,3.65
2023-02-25T05:22:35.380Z,4.23
2023-02-25T05:25:01.988Z,4.90
2023-02-25T05:27:29.219Z,3.97
2023-02-25T05:29:56.020Z,3.92
2023-02-25T05:32:23.577Z,3.92
2023-02-25T05:34:50.286Z,4.35
2023-02-25T05:37:17.746Z,4.22
2023-02-25T05:39:44.472Z,3.47
2023-02-25T05:42:11.867Z,3.90
2023-02-25T05:44:38.547Z,4.30
2023-02-25T05:47:06.286Z,4.13
2023-02-25T05:49:33.525Z,4.28
2023-02-25T05:52:00.812Z,4.68
2023-02-25T05:54:27.449Z,4.38
2023-02-25T05:56:54.671Z,4.25
2023-02-25T05:59:21.378Z,4.10
2023-02-25T06:01:48.778Z,3.08
2023-02-25T06:04:15.453Z,4.13
2023-02-25T06:06:42.795Z,4.30
2023-02-25T06:09:10.192Z,4.03
2023-02-25T06:11:37.608Z,5.35
2023-02-25T06:14:04.260Z,3.75
2023-02-25T06:16:32.633Z,4.22
2023-02-25T06:19:00.890Z,4.25
2023-02-25T06:21:28.272Z,4.90
2023-02-25T06:23:55.296Z,4.88
2023-02-25T06:26:23.724Z,4.32
2023-02-25T06:28:50.613Z,4.68
2023-02-25T06:31:20.321Z,3.50
2023-02-25T06:33:47.230Z,4.28
2023-02-25T06:36:15.825Z,4.60
2023-02-25T06:38:45.991Z,4.55
2023-02-25T06:41:16.802Z,4.53
2023-02-25T06:43:44.419Z,4.45
2023-02-25T06:46:14.392Z,5.03
2023-02-25T06:48:41.111Z,5.25
2023-02-25T06:51:09.809Z,4.75
2023-02-25T06:53:37.659Z,4.00
2023-02-25T06:56:05.119Z,4.75
2023-02-25T06:58:31.959Z,5.20
2023-02-25T07:00:59.932Z,4.25
2023-02-25T07:03:26.858Z,4.70
2023-02-25T07:05:54.142Z,5.47
2023-02-25T07:08:20.720Z,5.60
2023-02-25T07:10:48.057Z,4.10
2023-02-25T07:13:14.775Z,5.40
2023-02-25T07:15:42.554Z,4.68
2023-02-25T07:18:09.622Z,5.78
2023-02-25T07:20:39.382Z,5.40
2023-02-25T07:23:06.402Z,5.47
2023-02-25T07:25:33.393Z,6.03
2023-02-25T07:28:01.068Z,5.35
2023-02-25T07:30:28.209Z,5.38
2023-02-25T07:32:55.143Z,4.70
2023-02-25T07:35:22.082Z,4.30
2023-02-25T07:37:48.716Z,5.15
2023-02-25T07:40:17.054Z,5.20
2023-02-25T07:42:44.125Z,4.63
2023-02-25T07:45:12.724Z,6.03
2023-02-25T07:47:40.030Z,8.85
2023-02-25T07:50:12.678Z,8.73
2023-02-25T07:55:07.649Z,7.82
2023-02-25T07:57:35.571Z,5.80
2023-02-25T08:00:03.019Z,5.40
2023-02-25T08:02:39.413Z,5.28
2023-02-25T08:05:07.804Z,5.88
2023-02-25T08:07:34.645Z,4.72
2023-02-25T08:10:02.285Z,4.75
2023-02-25T08:12:29.244Z,4.60
2023-02-25T08:14:57.666Z,4.22
2023-02-25T08:17:24.424Z,4.15
2023-02-25T08:19:52.775Z,4.82
2023-02-25T08:22:19.376Z,3.92
2023-02-25T08:24:46.696Z,4.18
2023-02-25T08:27:13.393Z,4.25
2023-02-25T08:29:40.653Z,5.15
2023-02-25T08:32:07.710Z,4.78
2023-02-25T08:34:35.517Z,4.90
2023-02-25T08:37:02.312Z,4.97
2023-02-25T08:39:31.219Z,4.82
2023-02-25T08:41:57.813Z,4.50
2023-02-25T08:44:25.152Z,4.80
2023-02-25T08:46:56.740Z,3.70
2023-02-25T08:49:24.077Z,5.95
2023-02-25T08:51:51.162Z,5.72
2023-02-25T08:54:18.611Z,5.70
2023-02-25T08:56:45.594Z,4.90
2023-02-25T08:59:15.596Z,4.72
2023-02-25T09:01:46.085Z,5.75
2023-02-25T09:04:21.939Z,4.25
2023-02-25T09:06:49.378Z,4.57
2023-02-25T09:09:18.716Z,4.47
2023-02-25T09:11:46.250Z,4.28
2023-02-25T09:14:14.358Z,4.97
2023-02-25T09:16:41.294Z,3.65
2023-02-25T09:19:08.629Z,4.30
2023-02-25T09:21:36.469Z,3.75
2023-02-25T09:24:03.487Z,4.00
2023-02-25T09:26:30.169Z,4.57
2023-02-25T09:29:01.745Z,3.95
2023-02-25T09:31:28.744Z,3.70
2023-02-25T09:33:56.002Z,3.42
2023-02-25T09:36:22.928Z,3.97
2023-02-25T09:38:51.715Z,3.47
2023-02-25T09:41:27.461Z,3.90
2023-02-25T09:44:08.407Z,3.88
2023-02-25T09:46:41.394Z,4.22
2023-02-25T09:49:27.620Z,3.78
2023-02-25T09:52:18.606Z,4.00
2023-02-25T09:54:48.418Z,3.63
2023-02-25T09:57:22.437Z,3.90
2023-02-25T09:59:55.216Z,3.63
2023-02-25T10:02:28.950Z,3.42
2023-02-25T10:05:21.776Z,3.83
2023-02-25T10:08:26.389Z,3.63
2023-02-25T10:17:44.728Z,3.10
2023-02-25T10:20:39.254Z,3.83
2023-02-25T10:23:16.560Z,3.80
2023-02-25T10:25:56.972Z,3.58
2023-02-25T10:28:25.620Z,3.80
2023-02-25T10:31:17.922Z,3.00
2023-02-25T10:34:03.682Z,3.20
2023-02-25T10:36:43.989Z,2.70
2023-02-25T10:39:24.054Z,2.75
2023-02-25T10:42:55.994Z,2.85
2023-02-25T10:49:17.998Z,2.50
2023-02-25T10:52:14.264Z,2.25
2023-02-25T10:54:53.385Z,2.42
2023-02-25T10:57:51.717Z,2.53
2023-02-25T11:00:32.252Z,2.95
2023-02-25T11:06:37.055Z,1.95
2023-02-25T11:09:44.112Z,2.08
2023-02-25T11:15:49.366Z,2.92
2023-02-25T11:19:01.078Z,2.65
2023-02-25T11:31:34.671Z,1.98
2023-02-25T11:41:47.608Z,2.65
2023-02-25T12:12:10.643Z,2.15
2023-02-25T12:23:25.610Z,2.00
2023-02-25T12:25:52.718Z,2.83
2023-02-25T12:28:57.896Z,1.75
2023-02-25T12:31:51.588Z,3.13
2023-02-25T12:34:42.265Z,2.63
2023-02-25T12:37:15.522Z,3.28
2023-02-25T12:40:09.375Z,2.22
2023-02-25T12:43:04.476Z,2.47
2023-02-25T12:45:54.267Z,3.15
2023-02-25T12:49:05.610Z,1.58
2023-02-25T12:52:03.877Z,2.00
2023-02-25T12:55:02.746Z,2.10
2023-02-25T12:57:54.957Z,1.30
2023-02-25T13:00:37.067Z,2.08
2023-02-25T13:03:21.073Z,2.00
2023-02-25T13:06:12.395Z,2.42
2023-02-25T13:08:47.075Z,2.38
2023-02-25T13:11:34.625Z,2.85
2023-02-25T13:14:23.378Z,2.63
2023-02-25T13:17:25.838Z,2.92
2023-02-25T13:20:01.481Z,2.50
2023-02-25T13:22:50.271Z,2.22
2023-02-25T13:25:43.490Z,2.60
2023-02-25T13:28:25.385Z,2.55
2023-02-25T13:31:11.929Z,2.38
2023-02-25T13:33:53.050Z,2.10
2023-02-25T13:36:49.874Z,2.50
2023-02-25T13:39:16.437Z,2.72
2023-02-25T13:42:08.693Z,2.88
2023-02-25T13:45:09.591Z,3.10
2023-02-25T13:48:00.369Z,2.40
2023-02-25T13:51:02.255Z,3.63
2023-02-25T13:53:52.511Z,2.67
2023-02-25T13:56:37.886Z,2.80
2023-02-25T13:59:41.665Z,2.88
2023-02-25T14:02:26.063Z,2.20
2023-02-25T14:05:04.451Z,2.47
2023-02-25T14:08:10.196Z,1.98
2023-02-25T14:10:50.183Z,2.10
2023-02-25T14:13:35.666Z,2.28
2023-02-25T14:16:26.868Z,1.75
2023-02-25T14:19:22.138Z,1.98
2023-02-25T14:22:22.584Z,2.20
2023-02-25T14:25:28.488Z,1.60
2023-02-25T14:28:37.452Z,2.00
2023-02-25T14:31:06.882Z,1.73
2023-02-25T14:33:52.507Z,1.92
2023-02-25T14:36:34.724Z,2.03
2023-02-25T14:39:48.762Z,1.80
2023-02-25T14:42:48.625Z,2.50
2023-02-25T14:45:31.697Z,1.60
2023-02-25T14:48:02.302Z,1.80
2023-02-25T14:51:07.694Z,1.58
2023-02-25T14:53:49.326Z,1.83
2023-02-25T14:56:47.879Z,2.03
2023-02-25T14:59:24.684Z,2.30
2023-02-25T15:02:03.045Z,1.50
2023-02-25T15:04:54.210Z,2.22
2023-02-25T15:07:58.669Z,2.25
2023-02-25T15:11:03.662Z,1.70
2023-02-25T15:13:50.127Z,2.13
2023-02-25T15:16:58.011Z,1.98
2023-02-25T15:19:39.831Z,2.00
2023-02-25T15:22:26.917Z,2.03
2023-02-25T15:25:14.877Z,2.20
2023-02-25T15:27:47.447Z,1.92
2023-02-25T15:30:21.323Z,2.58
2023-02-25T15:32:57.932Z,2.53
2023-02-25T15:35:52.574Z,2.70
2023-02-25T15:38:41.150Z,1.60
2023-02-25T15:41:41.359Z,1.50
2023-02-25T15:44:08.641Z,1.67
2023-02-25T15:46:35.266Z,1.52
2023-02-25T15:49:20.865Z,1.58
2023-02-25T15:51:53.535Z,3.83
2023-02-25T15:57:01.273Z,2.00
2023-02-25T15:59:58.227Z,1.70
2023-02-25T16:02:33.475Z,1.50
2023-02-25T16:05:04.565Z,2.17
2023-02-25T16:07:41.494Z,1.35
2023-02-25T16:10:26.005Z,1.50
2023-02-25T16:12:56.670Z,1.60
2023-02-25T16:15:40.508Z,2.30
2023-02-25T16:18:34.266Z,1.70
2023-02-25T16:23:38.186Z,1.42
2023-02-25T16:26:30.236Z,1.52
2023-02-25T16:29:05.662Z,1.42
2023-02-25T16:31:58.476Z,2.60
2023-02-25T16:37:31.105Z,1.75
2023-02-25T16:39:58.951Z,2.03
2023-02-25T16:42:26.542Z,1.55
2023-02-25T16:44:59.631Z,1.67
2023-02-25T16:47:30.505Z,2.03
2023-02-25T16:49:59.627Z,2.38
2023-02-25T16:52:45.273Z,2.70
2023-02-25T16:55:23.265Z,2.90
2023-02-25T16:58:14.655Z,2.58
2023-02-25T17:00:52.313Z,2.85
2023-02-25T17:03:20.716Z,2.58
2023-02-25T17:06:07.993Z,3.20
2023-02-25T17:08:35.861Z,2.22
2023-02-25T17:11:05.367Z,1.77
2023-02-25T17:13:37.838Z,1.77
2023-02-25T17:16:05.926Z,1.38
2023-02-25T17:18:50.647Z,1.98
2023-02-25T17:21:38.021Z,2.22
2023-02-25T17:24:11.689Z,1.77
2023-02-25T17:26:43.533Z,2.40
2023-02-25T17:29:13.680Z,2.47
2023-02-25T17:31:53.074Z,2.50
2023-02-25T17:34:30.753Z,2.17
2023-02-25T17:37:05.033Z,2.25
2023-02-25T17:39:34.771Z,2.22
2023-02-25T17:42:01.564Z,2.00
2023-02-25T17:44:39.194Z,3.67
2023-02-25T17:47:09.111Z,2.22
2023-02-25T17:49:38.007Z,7.95
2023-02-25T17:52:18.401Z,2.92
2023-02-25T17:54:48.740Z,2.97
2023-02-25T17:57:24.105Z,2.70
2023-02-25T17:59:57.136Z,2.67
2023-02-25T18:02:39.148Z,7.25
2023-02-25T18:05:22.494Z,4.25
2023-02-25T18:08:04.258Z,2.97
2023-02-25T18:10:31.522Z,2.10
2023-02-25T18:13:00.682Z,2.00
2023-02-25T18:15:33.478Z,2.17
2023-02-25T18:18:05.696Z,2.65
2023-02-25T18:20:39.227Z,3.38
2023-02-25T18:23:07.189Z,2.55
2023-02-25T18:25:38.973Z,2.63
2023-02-25T18:28:12.161Z,2.45
2023-02-25T18:30:39.588Z,3.08
2023-02-25T18:33:06.391Z,3.80
2023-02-25T18:35:33.772Z,2.67
2023-02-25T18:38:00.848Z,2.38
2023-02-25T18:40:36.017Z,3.42
2023-02-25T18:43:03.733Z,2.70
2023-02-25T18:45:33.043Z,2.45
2023-02-25T18:48:03.010Z,3.10
2023-02-25T18:50:31.557Z,2.45
2023-02-25T18:52:58.846Z,3.00
2023-02-25T18:55:29.340Z,2.90
2023-02-25T18:57:56.291Z,3.33
2023-02-25T19:00:27.496Z,3.03
2023-02-25T19:03:02.487Z,2.95
2023-02-25T19:05:30.493Z,11.85
2023-02-25T19:07:57.502Z,4.80
2023-02-25T19:10:27.678Z,5.63
2023-02-25T19:13:06.750Z,4.60
2023-02-25T19:15:34.484Z,4.97
2023-02-25T19:18:01.211Z,4.43
2023-02-25T19:20:28.073Z,4.68
2023-02-25T19:22:54.860Z,3.90
2023-02-25T19:25:26.530Z,6.95
2023-02-25T19:27:54.880Z,7.00
2023-02-25T19:30:25.561Z,6.40
2023-02-25T19:32:52.586Z,5.95
2023-02-25T19:35:19.341Z,5.32
2023-02-25T19:37:46.340Z,7.13
2023-02-25T19:40:15.318Z,7.75
2023-02-25T19:42:44.879Z,9.82
2023-02-25T19:45:14.757Z,19.17
2023-02-25T19:47:42.565Z,83.50
2023-02-25T19:50:09.656Z,49.35
2023-02-25T19:52:37.256Z,36.55
2023-02-25T19:55:05.831Z,8.98
2023-02-25T19:57:33.334Z,36.35
2023-02-25T19:59:59.997Z,22.00
2023-02-25T20:02:27.008Z,28.98
2023-02-25T20:04:53.587Z,11.73
2023-02-25T20:07:20.530Z,14.00
2023-02-25T20:09:47.508Z,6.32
2023-02-25T20:12:14.756Z,6.43
2023-02-25T20:14:41.648Z,14.05
2023-02-25T20:17:09.183Z,23.65
2023-02-25T20:19:36.092Z,22.85
2023-02-25T20:22:06.006Z,9.85
2023-02-25T20:24:33.607Z,7.00
2023-02-25T20:27:00.787Z,7.43
2023-02-25T20:29:29.211Z,7.70
2023-02-25T20:31:57.626Z,10.13
2023-02-25T20:34:28.168Z,7.13
2023-02-25T20:37:03.678Z,6.55
2023-02-25T20:39:39.113Z,12.52
2023-02-25T20:42:15.094Z,10.00
2023-02-25T20:44:41.921Z,13.43
2023-02-25T20:47:20.189Z,12.77
2023-02-25T20:49:48.194Z,5.22
2023-02-25T20:52:16.223Z,7.20
2023-02-25T20:54:43.662Z,7.22
2023-02-25T20:57:16.424Z,10.32
2023-02-25T20:59:43.133Z,8.05
2023-02-25T21:02:11.262Z,4.93
2023-02-25T21:04:38.423Z,5.55
2023-02-25T21:07:07.161Z,7.55
2023-02-25T21:09:34.668Z,7.88
2023-02-25T21:12:02.567Z,8.00
2023-02-25T21:14:29.275Z,13.70
2023-02-25T21:16:57.074Z,6.30
2023-02-25T21:19:26.086Z,6.93
2023-02-25T21:21:53.605Z,12.90
2023-02-25T21:24:20.629Z,4.63
2023-02-25T21:26:48.185Z,8.65
2023-02-25T21:29:14.831Z,8.05
2023-02-25T21:31:42.699Z,52.53
2023-02-25T21:34:12.749Z,13.18
2023-02-25T21:36:41.323Z,5.05
2023-02-25T21:39:14.808Z,7.75
2023-02-25T21:41:44.230Z,10.40
2023-02-25T21:44:11.970Z,7.30
2023-02-25T21:46:39.623Z,6.45
2023-02-25T21:49:06.288Z,4.82
2023-02-25T21:51:33.558Z,5.28
2023-02-25T21:54:01.296Z,11.40
2023-02-25T21:56:29.946Z,17.35
2023-02-25T21:59:01.573Z,4.93
2023-02-25T22:01:31.689Z,2.97
2023-02-25T22:03:58.880Z,3.25
2023-02-25T22:06:27.305Z,5.53
2023-02-25T22:08:54.929Z,3.03
2023-02-25T22:11:25.784Z,5.22
2023-02-25T22:13:53.036Z,5.50
2023-02-25T22:16:21.507Z,3.88
2023-02-25T22:18:48.823Z,3.47
2023-02-25T22:21:22.199Z,3.33
2023-02-25T22:23:50.766Z,4.53
2023-02-25T22:26:21.134Z,6.00
2023-02-25T22:28:48.536Z,3.83
2023-02-25T22:31:17.940Z,7.15
2023-02-25T22:33:45.681Z,8.45
2023-02-25T22:36:15.276Z,10.10
2023-02-25T22:38:43.054Z,14.45
2023-02-25T22:41:22.600Z,10.70
2023-02-25T22:43:49.662Z,11.40
2023-02-25T22:46:23.277Z,10.18
2023-02-25T22:48:50.716Z,8.40
2023-02-25T22:51:24.394Z,9.40
2023-02-25T22:53:51.834Z,11.18
2023-02-25T22:56:19.585Z,9.10
2023-02-25T22:58:46.511Z,10.43
2023-02-25T23:01:15.989Z,17.88
2023-02-25T23:03:46.001Z,14.27
2023-02-25T23:06:15.552Z,44.75
2023-02-25T23:08:43.171Z,23.98
2023-02-25T23:11:22.826Z,8.80
2023-02-25T23:13:52.655Z,62.95
2023-02-25T23:16:24.092Z,28.67
2023-02-25T23:18:52.236Z,53.75
2023-02-25T23:21:20.121Z,44.45
2023-02-25T23:23:57.022Z,33.00
2023-02-25T23:26:27.130Z,37.85
2023-02-25T23:28:56.112Z,58.05
2023-02-25T23:31:28.586Z,16.95
2023-02-25T23:36:28.129Z,35.10
2023-02-25T23:38:57.166Z,55.72
2023-02-25T23:41:25.735Z,25.45
2023-02-25T23:43:55.070Z,35.47
2023-02-25T23:46:26.087Z,32.47
2023-02-25T23:48:58.445Z,33.95
2023-02-25T23:51:25.967Z,45.35
2023-02-25T23:53:55.032Z,11.07
2023-02-25T23:56:22.986Z,12.45
2023-02-25T23:58:51.531Z,10.98
